Time;durP1;ratioP1;P1;durP2;ratioP2;P2;SDS_P1;SDS_P2;PMS_P1;PMS_P2;Temp;Humidity;BMP_temperature;BMP_pressure;BME280_temperature;BME280_humidity;BME280_pressure;Samples;Min_cycle;Max_cycle;Signal;HPM_P1;HPM_P2
2023/02/01 00:01:19;;;;;;;164.18;26.00;;;8.40;91.40;;;;;;5085622;28;20092;-56
2023/02/01 00:03:45;;;;;;;113.03;20.92;;;8.40;91.40;;;;;;5085581;28;20031;-56
2023/02/01 00:06:11;;;;;;;132.07;21.45;;;8.30;91.40;;;;;;5085602;28;20021;-56
2023/02/01 00:08:36;;;;;;;151.43;23.38;;;8.40;91.40;;;;;;5086707;28;20016;-56
2023/02/01 00:11:06;;;;;;;122.00;21.23;;;8.40;91.40;;;;;;5085717;28;20025;-56
2023/02/01 00:13:33;;;;;;;107.22;19.42;;;8.30;91.40;;;;;;5085457;28;20028;-56
2023/02/01 00:16:05;;;;;;;122.47;21.75;;;8.30;91.40;;;;;;5085512;28;20025;-56
2023/02/01 00:18:31;;;;;;;121.05;21.17;;;8.30;91.40;;;;;;5086428;28;20456;-56
2023/02/01 00:20:57;;;;;;;119.70;21.77;;;8.30;91.40;;;;;;5085561;28;20149;-56
2023/02/01 00:23:22;;;;;;;123.22;19.45;;;8.30;91.40;;;;;;5085148;28;20024;-56
2023/02/01 00:25:48;;;;;;;112.43;20.73;;;8.30;91.40;;;;;;5068345;28;20025;-56
2023/02/01 00:28:13;;;;;;;107.82;18.48;;;8.20;91.40;;;;;;5085310;28;20025;-56
2023/02/01 00:30:39;;;;;;;125.03;20.48;;;8.30;91.40;;;;;;5086681;28;20039;-56
2023/02/01 00:33:04;;;;;;;99.05;20.65;;;8.20;91.40;;;;;;5085118;28;20074;-56
2023/02/01 00:35:30;;;;;;;109.63;20.48;;;8.20;91.40;;;;;;5085054;28;20054;-56
2023/02/01 00:37:58;;;;;;;115.90;20.75;;;8.20;91.40;;;;;;5086331;28;20044;-56
2023/02/01 00:40:24;;;;;;;105.45;19.98;;;8.20;91.50;;;;;;5086295;28;20028;-56
2023/02/01 00:42:49;;;;;;;113.97;19.35;;;8.20;91.50;;;;;;5085030;28;20025;-56
2023/02/01 00:45:15;;;;;;;86.82;17.95;;;8.20;91.40;;;;;;5084779;28;20025;-56
2023/02/01 00:47:40;;;;;;;109.50;17.90;;;8.10;91.40;;;;;;5084542;28;20033;-56
2023/02/01 00:50:06;;;;;;;97.07;17.67;;;8.10;91.40;;;;;;5084791;28;20039;-56
2023/02/01 00:52:32;;;;;;;90.30;16.95;;;8.10;91.40;;;;;;5086108;28;20032;-56
2023/02/01 00:54:57;;;;;;;98.22;18.33;;;8.10;91.40;;;;;;5084611;28;20032;-56
2023/02/01 00:57:23;;;;;;;94.13;17.98;;;8.10;91.40;;;;;;5084961;28;20361;-56
2023/02/01 00:59:49;;;;;;;76.32;16.42;;;8.10;91.50;;;;;;5085406;28;20164;-55
2023/02/01 01:02:14;;;;;;;83.18;18.13;;;8.10;91.50;;;;;;5084825;28;20021;-56
2023/02/01 01:04:40;;;;;;;77.90;16.75;;;8.00;91.50;;;;;;5084289;28;20437;-56
2023/02/01 01:07:06;;;;;;;79.82;17.20;;;8.00;91.50;;;;;;5085951;28;20024;-56
2023/02/01 01:09:31;;;;;;;100.18;17.58;;;8.00;91.60;;;;;;5085690;28;20392;-56
2023/02/01 01:12:02;;;;;;;84.07;16.85;;;8.00;91.60;;;;;;5085868;28;20034;-56
2023/02/01 01:14:30;;;;;;;94.20;17.25;;;8.00;91.60;;;;;;5084463;28;20046;-56
2023/02/01 01:16:55;;;;;;;85.30;16.65;;;7.90;91.50;;;;;;5068007;28;20025;-56
2023/02/01 01:19:21;;;;;;;66.07;16.05;;;7.90;91.50;;;;;;5084067;28;20067;-56
2023/02/01 01:21:46;;;;;;;78.63;16.35;;;7.90;91.50;;;;;;5084278;28;20365;-56
2023/02/01 01:24:12;;;;;;;77.15;15.73;;;7.90;91.60;;;;;;5084862;28;20079;-56
2023/02/01 01:26:38;;;;;;;68.50;16.15;;;7.90;91.60;;;;;;5084261;28;20090;-55
2023/02/01 01:29:03;;;;;;;77.28;15.38;;;7.90;91.60;;;;;;5085602;28;20028;-56
2023/02/01 01:31:30;;;;;;;83.75;17.33;;;7.80;91.60;;;;;;5084795;28;20032;-56
2023/02/01 01:33:57;;;;;;;85.60;16.75;;;7.80;91.70;;;;;;5084254;28;20020;-56
2023/02/01 01:36:23;;;;;;;75.28;15.93;;;7.80;91.70;;;;;;5085433;28;20195;-55
2023/02/01 01:38:49;;;;;;;62.33;16.13;;;7.80;91.70;;;;;;5083502;28;20185;-56
2023/02/01 01:41:34;;;;;;;83.43;16.02;;;7.80;91.70;;;;;;5066971;28;20047;-56
2023/02/01 01:44:26;;;;;;;77.05;16.92;;;7.80;91.70;;;;;;5084826;28;20068;-57
2023/02/01 01:46:52;;;;;;;61.38;15.63;;;7.80;91.70;;;;;;5069827;28;20050;-56
2023/02/01 01:49:20;;;;;;;66.03;16.25;;;7.70;91.70;;;;;;5084855;28;20464;-56
2023/02/01 01:51:53;;;;;;;72.43;16.33;;;7.80;91.70;;;;;;5083661;28;20036;-56
2023/02/01 01:54:24;;;;;;;67.18;15.43;;;7.70;91.60;;;;;;5066650;28;20047;-56
2023/02/01 01:56:52;;;;;;;69.25;16.40;;;7.70;91.70;;;;;;5067067;28;20097;-56
2023/02/01 01:59:17;;;;;;;61.35;15.30;;;7.70;91.70;;;;;;5083482;28;20037;-56
2023/02/01 02:01:43;;;;;;;71.30;14.75;;;7.70;91.70;;;;;;5083742;28;20028;-56
2023/02/01 02:04:09;;;;;;;61.22;14.13;;;7.70;91.70;;;;;;5083423;28;20047;-56
2023/02/01 02:06:45;;;;;;;52.85;12.80;;;7.60;91.70;;;;;;5083613;28;20028;-56
2023/02/01 02:09:10;;;;;;;53.17;13.45;;;7.60;91.60;;;;;;5083643;28;20104;-57
2023/02/01 02:11:36;;;;;;;53.33;13.52;;;7.50;91.50;;;;;;5083574;28;20024;-56
2023/02/01 02:14:02;;;;;;;68.90;14.52;;;7.60;91.50;;;;;;5084610;28;20024;-56
2023/02/01 02:16:52;;;;;;;53.50;14.23;;;7.60;91.60;;;;;;5083409;28;20033;-56
2023/02/01 02:19:40;;;;;;;49.67;13.45;;;7.60;91.60;;;;;;5083287;28;20391;-56
2023/02/01 02:22:51;;;;;;;49.95;13.10;;;7.50;91.50;;;;;;5084663;28;20028;-56
2023/02/01 02:25:47;;;;;;;51.72;14.38;;;7.50;91.50;;;;;;5083513;28;20029;-56
2023/02/01 02:28:41;;;;;;;54.22;12.95;;;7.50;91.60;;;;;;5083192;28;20056;-56
2023/02/01 02:31:28;;;;;;;53.38;13.25;;;7.50;91.60;;;;;;5083346;28;20036;-56
2023/02/01 02:34:06;;;;;;;45.80;13.45;;;7.50;91.50;;;;;;5086944;28;20081;-56
2023/02/01 02:36:38;;;;;;;39.47;11.90;;;7.40;91.50;;;;;;5087565;28;20092;-56
2023/02/01 02:39:34;;;;;;;51.78;13.30;;;7.40;91.60;;;;;;5087192;28;20036;-56
2023/02/01 02:47:56;;;;;;;53.67;14.15;;;7.40;91.60;;;;;;5088468;28;20063;-56
2023/02/01 03:04:20;;;;;;;45.65;14.25;;;7.30;91.80;;;;;;5087092;28;20089;-56
2023/02/01 03:06:46;;;;;;;56.22;12.93;;;7.30;91.80;;;;;;5088297;28;20056;-56
2023/02/01 03:09:35;;;;;;;39.40;13.93;;;7.30;91.80;;;;;;5088228;28;20038;-56
2023/02/01 03:14:50;;;;;;;38.63;13.38;;;7.30;91.70;;;;;;5086909;28;20056;-56
2023/02/01 03:17:19;;;;;;;45.92;13.38;;;7.30;91.60;;;;;;5086630;28;20029;-56
2023/02/01 03:19:49;;;;;;;35.97;12.85;;;7.30;91.70;;;;;;5086214;28;20066;-56
2023/02/01 03:22:20;;;;;;;38.92;12.98;;;7.30;91.80;;;;;;5086582;28;20200;-56
2023/02/01 03:24:47;;;;;;;36.33;12.70;;;7.20;91.70;;;;;;5086273;28;20021;-56
2023/02/01 03:27:31;;;;;;;41.53;13.18;;;7.20;91.60;;;;;;5086589;28;20036;-56
2023/02/01 03:30:21;;;;;;;33.17;12.73;;;7.20;91.70;;;;;;5086241;28;20025;-56
2023/02/01 03:32:58;;;;;;;37.40;12.40;;;7.10;91.70;;;;;;5087850;28;20090;-56
2023/02/01 03:35:29;;;;;;;33.55;13.15;;;7.20;91.70;;;;;;5086457;28;20028;-56
2023/02/01 03:38:03;;;;;;;30.60;12.27;;;7.10;91.70;;;;;;5086360;28;20039;-56
2023/02/01 03:40:31;;;;;;;46.25;13.18;;;7.10;91.70;;;;;;5086162;28;20054;-56
2023/02/01 03:42:56;;;;;;;30.92;13.05;;;7.10;91.70;;;;;;5086257;28;20044;-56
2023/02/01 03:45:25;;;;;;;30.30;13.07;;;7.10;91.70;;;;;;5085979;28;20421;-56
2023/02/01 03:47:52;;;;;;;39.20;13.93;;;7.10;91.80;;;;;;5086072;28;20048;-56
2023/02/01 03:50:18;;;;;;;30.88;12.75;;;7.10;91.80;;;;;;5085866;28;20029;-56
2023/02/01 03:53:02;;;;;;;35.65;13.35;;;7.10;91.80;;;;;;5069269;28;20048;-56
2023/02/01 03:55:27;;;;;;;39.33;13.02;;;7.10;91.90;;;;;;5085970;28;20041;-56
2023/02/01 03:57:57;;;;;;;40.20;13.27;;;7.10;91.90;;;;;;5085997;28;20036;-56
2023/02/01 04:00:24;;;;;;;37.50;13.23;;;7.10;92.00;;;;;;5085828;28;20039;-56
2023/02/01 04:02:50;;;;;;;35.25;13.75;;;7.10;92.10;;;;;;5085931;28;20094;-56
2023/02/01 04:05:16;;;;;;;37.35;13.60;;;7.10;92.40;;;;;;5085870;28;20032;-56
2023/02/01 04:07:42;;;;;;;38.92;14.50;;;7.10;92.20;;;;;;5068953;28;20462;-56
2023/02/01 04:10:08;;;;;;;28.95;13.65;;;7.10;92.20;;;;;;5085622;28;20083;-56
2023/02/01 04:12:33;;;;;;;38.78;14.18;;;7.00;92.20;;;;;;5085551;28;20380;-56
2023/02/01 04:14:59;;;;;;;41.58;14.07;;;7.10;92.30;;;;;;5086665;28;20082;-56
2023/02/01 04:17:24;;;;;;;38.13;13.93;;;7.10;92.30;;;;;;5085483;28;20036;-56
2023/02/01 04:19:50;;;;;;;29.35;12.40;;;7.10;92.40;;;;;;5086891;28;20149;-56
2023/02/01 04:22:15;;;;;;;38.78;14.52;;;7.10;92.30;;;;;;5085502;28;20126;-56
2023/02/01 04:24:41;;;;;;;30.65;13.15;;;7.00;92.30;;;;;;5085327;28;20023;-56
2023/02/01 04:27:06;;;;;;;29.92;12.15;;;7.00;92.30;;;;;;5085303;28;20129;-56
2023/02/01 04:29:32;;;;;;;29.40;12.68;;;7.00;92.20;;;;;;5085114;28;20028;-56
2023/02/01 04:31:58;;;;;;;24.27;12.60;;;7.00;92.20;;;;;;5085057;28;20040;-56
2023/02/01 04:34:24;;;;;;;29.85;12.35;;;7.00;92.30;;;;;;5068064;28;20039;-55
2023/02/01 04:36:50;;;;;;;24.80;12.90;;;7.00;92.30;;;;;;5085003;28;20165;-56
2023/02/01 04:39:16;;;;;;;35.92;13.07;;;7.00;92.30;;;;;;5084829;28;20036;-56
2023/02/01 04:41:42;;;;;;;70.80;16.85;;;6.90;92.20;;;;;;5084965;28;20033;-56
2023/02/01 04:44:17;;;;;;;71.28;17.00;;;7.00;92.20;;;;;;5086320;28;20032;-56
2023/02/01 04:46:43;;;;;;;;;;;7.00;92.30;;;;;;5085286;28;20480;-56
2023/02/01 04:49:09;;;;;;;;;;;7.00;92.30;;;;;;5102240;28;19912;-56
2023/02/01 04:51:34;;;;;;;42.90;12.35;;;6.90;92.20;;;;;;5101910;28;19916;-56
2023/02/01 04:54:00;;;;;;;54.08;14.43;;;6.90;92.10;;;;;;5086288;28;20448;-57
2023/02/01 04:56:25;;;;;;;45.90;13.90;;;6.90;92.10;;;;;;5084973;28;20020;-56
2023/02/01 04:58:51;;;;;;;43.47;13.40;;;6.90;92.20;;;;;;5086279;28;20047;-56
2023/02/01 05:01:16;;;;;;;41.45;13.05;;;6.90;92.10;;;;;;5085959;28;20476;-55
2023/02/01 05:03:42;;;;;;;38.28;13.65;;;6.90;92.10;;;;;;5085990;28;20025;-56
2023/02/01 05:06:07;;;;;;;44.35;13.90;;;6.90;92.10;;;;;;5084900;28;20029;-57
2023/02/01 05:08:33;;;;;;;34.15;12.23;;;6.90;92.10;;;;;;5086289;28;20025;-56
2023/02/01 05:10:59;;;;;;;37.00;11.98;;;6.90;92.00;;;;;;5084325;28;20024;-56
2023/02/01 05:16:09;;;;;;;30.20;10.77;;;6.90;91.90;;;;;;5084580;28;20472;-56
2023/02/01 05:18:34;;;;;;;30.85;9.80;;;6.80;91.80;;;;;;5085636;28;20024;-56
2023/02/01 05:21:00;;;;;;;31.38;10.75;;;6.80;91.90;;;;;;5084255;28;20025;-56
2023/02/01 05:23:26;;;;;;;32.53;11.05;;;6.80;91.90;;;;;;5084462;28;20021;-56
2023/02/01 05:25:51;;;;;;;28.13;10.40;;;6.80;91.90;;;;;;5084214;28;20029;-56
2023/02/01 05:28:17;;;;;;;31.05;10.65;;;6.70;91.90;;;;;;5084062;28;20033;-56
2023/02/01 05:30:43;;;;;;;30.50;11.65;;;6.80;92.00;;;;;;5084201;28;20029;-56
2023/02/01 05:33:08;;;;;;;33.75;10.65;;;6.70;92.00;;;;;;5084074;28;20040;-56
2023/02/01 05:35:34;;;;;;;31.95;10.35;;;6.80;92.00;;;;;;5084076;28;20024;-56
2023/02/01 05:37:59;;;;;;;37.35;10.88;;;6.80;92.30;;;;;;5084072;28;20107;-56
2023/02/01 05:40:25;;;;;;;34.78;11.05;;;6.80;92.00;;;;;;5067154;28;20028;-56
2023/02/01 05:42:50;;;;;;;38.10;9.40;;;6.80;92.10;;;;;;5085338;28;20035;-56
2023/02/01 05:45:16;;;;;;;27.85;10.90;;;6.70;92.10;;;;;;5067161;28;20039;-56
2023/02/01 05:47:42;;;;;;;25.35;10.75;;;6.80;92.20;;;;;;5085199;28;20035;-56
2023/02/01 05:50:07;;;;;;;26.80;9.80;;;6.80;92.20;;;;;;5085109;28;20036;-56
2023/02/01 05:52:33;;;;;;;26.10;10.82;;;6.80;92.20;;;;;;5083772;28;20028;-56
2023/02/01 05:54:59;;;;;;;30.73;10.27;;;6.80;92.10;;;;;;5085038;28;20099;-56
2023/02/01 05:57:24;;;;;;;28.50;9.70;;;6.80;92.30;;;;;;5083728;28;20056;-56
2023/02/01 05:59:50;;;;;;;31.60;11.15;;;6.80;92.30;;;;;;5083530;28;20464;-56
2023/02/01 06:02:16;;;;;;;31.73;10.63;;;6.80;92.40;;;;;;5083712;28;20021;-56
2023/02/01 06:04:41;;;;;;;24.33;9.43;;;6.80;92.40;;;;;;5083500;28;20173;-56
2023/02/01 06:07:08;;;;;;;29.15;9.80;;;6.80;92.30;;;;;;5066054;28;20078;-56
2023/02/01 06:09:35;;;;;;;28.63;10.25;;;6.80;92.40;;;;;;5084645;28;20063;-56
2023/02/01 06:12:00;;;;;;;28.48;9.80;;;6.80;92.40;;;;;;5083526;28;20104;-56
2023/02/01 06:14:27;;;;;;;24.13;8.80;;;6.80;92.40;;;;;;5083464;28;20024;-56
2023/02/01 06:16:53;;;;;;;23.48;10.00;;;6.80;92.30;;;;;;5083584;28;20047;-56
2023/02/01 06:19:19;;;;;;;24.08;10.32;;;6.80;92.40;;;;;;5083277;28;20078;-56
2023/02/01 06:21:44;;;;;;;24.52;8.57;;;6.70;92.40;;;;;;5084849;28;20024;-56
2023/02/01 06:24:10;;;;;;;25.92;9.15;;;6.80;92.50;;;;;;5083517;28;20021;-56
2023/02/01 06:26:36;;;;;;;20.08;8.00;;;6.80;92.40;;;;;;5083486;28;20024;-56
2023/02/01 06:29:01;;;;;;;18.98;8.95;;;6.80;92.30;;;;;;5084540;28;20028;-56
2023/02/01 06:31:27;;;;;;;26.85;8.95;;;6.70;92.30;;;;;;5082941;28;20036;-56
2023/02/01 06:33:53;;;;;;;21.27;8.85;;;6.70;92.30;;;;;;5084451;28;20024;-56
2023/02/01 06:36:20;;;;;;;21.67;8.70;;;6.80;92.30;;;;;;5082760;28;20108;-56
2023/02/01 06:38:47;;;;;;;25.77;9.00;;;6.80;92.30;;;;;;5083278;28;20048;-56
2023/02/01 06:41:12;;;;;;;21.65;8.48;;;6.80;92.30;;;;;;5082388;28;20048;-56
2023/02/01 06:43:38;;;;;;;24.50;9.68;;;6.70;92.20;;;;;;5064275;28;20021;-56
2023/02/01 06:46:05;;;;;;;19.38;9.32;;;6.80;92.30;;;;;;5081095;28;20084;-56
2023/02/01 06:48:31;;;;;;;19.60;8.93;;;6.70;92.30;;;;;;5081427;28;20314;-56
2023/02/01 06:50:56;;;;;;;21.17;8.43;;;6.70;92.20;;;;;;5096792;28;20106;-56
2023/02/01 06:53:22;;;;;;;23.45;9.23;;;6.70;92.20;;;;;;5101757;28;20039;-56
2023/02/01 06:55:54;;;;;;;20.20;8.63;;;6.70;92.20;;;;;;5102806;28;20134;-56
2023/02/01 06:58:20;;;;;;;19.10;8.35;;;6.70;92.30;;;;;;5103193;28;20162;-56
2023/02/01 07:00:46;;;;;;;18.13;7.93;;;6.70;92.20;;;;;;5102891;28;20400;-56
2023/02/01 07:03:12;;;;;;;19.52;8.07;;;6.70;92.20;;;;;;5102921;28;20173;-56
2023/02/01 07:05:37;;;;;;;18.30;8.02;;;6.80;92.20;;;;;;5103272;28;20544;-56
2023/02/01 07:08:03;;;;;;;20.35;8.70;;;6.70;92.10;;;;;;5104865;28;20099;-56
2023/02/01 07:10:28;;;;;;;17.92;8.00;;;6.70;92.00;;;;;;5104682;28;20127;-56
2023/02/01 07:12:59;;;;;;;22.73;8.75;;;6.70;92.00;;;;;;5104669;28;20024;-56
2023/02/01 07:15:25;;;;;;;14.95;7.80;;;6.70;92.00;;;;;;5103106;28;20024;-56
2023/02/01 07:17:50;;;;;;;14.10;7.60;;;6.70;92.20;;;;;;5104228;28;20024;-56
2023/02/01 07:20:16;;;;;;;13.48;7.90;;;6.70;91.90;;;;;;5105807;28;20028;-56
2023/02/01 07:22:42;;;;;;;13.35;7.85;;;6.70;91.90;;;;;;5106820;28;20028;-56
2023/02/01 07:25:07;;;;;;;23.40;8.18;;;6.70;91.80;;;;;;5108136;28;20091;-56
2023/02/01 07:27:34;;;;;;;11.60;7.43;;;6.70;91.80;;;;;;5108063;28;20033;-56
2023/02/01 07:30:02;;;;;;;12.60;8.13;;;6.70;91.80;;;;;;5106634;28;20122;-56
2023/02/01 07:32:28;;;;;;;16.70;7.82;;;6.70;91.70;;;;;;5106645;28;20077;-56
2023/02/01 07:34:53;;;;;;;16.08;8.13;;;6.70;91.70;;;;;;5106871;28;20043;-56
2023/02/01 07:37:19;;;;;;;17.17;7.82;;;6.70;91.70;;;;;;5089941;28;20028;-55
2023/02/01 07:39:44;;;;;;;13.50;7.55;;;6.60;91.80;;;;;;5089622;28;20046;-56
2023/02/01 07:42:10;;;;;;;15.45;9.00;;;6.70;91.80;;;;;;5108080;28;20064;-56
2023/02/01 07:44:35;;;;;;;14.13;8.43;;;6.70;91.80;;;;;;5106858;28;20035;-56
2023/02/01 07:47:01;;;;;;;14.48;9.10;;;6.70;91.90;;;;;;5107026;28;20038;-56
2023/02/01 07:49:27;;;;;;;13.40;8.40;;;6.70;91.90;;;;;;5107949;28;20123;-56
2023/02/01 07:51:52;;;;;;;12.73;7.43;;;6.70;91.90;;;;;;5106682;28;20032;-56
2023/02/01 07:54:18;;;;;;;16.27;8.15;;;6.60;91.90;;;;;;5089643;28;20047;-56
2023/02/01 07:56:43;;;;;;;18.85;8.35;;;6.60;92.00;;;;;;5108030;28;20035;-56
2023/02/01 07:59:09;;;;;;;16.20;7.82;;;6.60;92.00;;;;;;5106041;28;20478;-56
2023/02/01 08:01:34;;;;;;;15.27;8.13;;;6.60;92.00;;;;;;5106335;28;20470;-56
2023/02/01 08:04:01;;;;;;;12.05;7.90;;;6.70;92.10;;;;;;5106525;28;20023;-56
2023/02/01 08:06:28;;;;;;;17.30;8.45;;;6.60;92.10;;;;;;5106028;28;20535;-56
2023/02/01 08:08:53;;;;;;;13.23;7.68;;;6.70;92.10;;;;;;5106420;28;20036;-56
2023/02/01 08:11:19;;;;;;;13.95;7.10;;;6.70;92.10;;;;;;5106267;28;20024;-57
2023/02/01 08:13:45;;;;;;;13.45;7.30;;;6.60;92.10;;;;;;5105119;28;20047;-56
2023/02/01 08:16:11;;;;;;;20.73;7.95;;;6.70;92.10;;;;;;5105694;28;20032;-56
2023/02/01 08:18:37;;;;;;;15.77;7.80;;;6.60;92.10;;;;;;5087608;28;20055;-56
2023/02/01 08:21:07;;;;;;;23.30;9.00;;;6.70;92.20;;;;;;5107111;28;20043;-56
2023/02/01 08:23:34;;;;;;;19.23;8.95;;;6.70;92.30;;;;;;5104775;28;20501;-56
2023/02/01 08:26:20;;;;;;;20.92;7.90;;;6.60;92.30;;;;;;5105101;28;20024;-56
2023/02/01 08:28:51;;;;;;;36.47;9.40;;;6.70;92.30;;;;;;5105666;28;20384;-56
2023/02/01 08:31:17;;;;;;;41.88;10.25;;;6.70;92.30;;;;;;5102543;28;20063;-56
2023/02/01 08:33:43;;;;;;;22.55;8.38;;;6.70;92.40;;;;;;5103251;28;20479;-56
2023/02/01 08:36:09;;;;;;;53.42;11.40;;;6.70;92.40;;;;;;5103720;28;20054;-56
2023/02/01 08:38:36;;;;;;;43.95;10.75;;;6.70;92.40;;;;;;5103601;28;20024;-56
2023/02/01 08:41:06;;;;;;;37.03;10.05;;;6.70;92.50;;;;;;5103892;28;20168;-56
2023/02/01 08:43:32;;;;;;;49.38;10.63;;;6.70;92.50;;;;;;5104774;28;20046;-56
2023/02/01 08:45:57;;;;;;;42.45;9.43;;;6.70;92.50;;;;;;5105563;28;20032;-57
2023/02/01 08:48:23;;;;;;;31.13;9.20;;;6.70;92.80;;;;;;5106519;28;20032;-56
2023/02/01 08:50:48;;;;;;;40.60;9.18;;;6.70;92.40;;;;;;5104814;28;20035;-56
2023/02/01 08:53:14;;;;;;;33.67;9.63;;;6.70;92.70;;;;;;5106401;28;20047;-56
2023/02/01 08:55:40;;;;;;;29.85;10.02;;;6.70;92.40;;;;;;5106475;28;20084;-56
2023/02/01 08:58:05;;;;;;;40.72;10.13;;;6.70;92.30;;;;;;5105081;28;20560;-56
2023/02/01 09:00:31;;;;;;;46.47;11.13;;;6.70;92.40;;;;;;5104829;28;20039;-56
2023/02/01 09:02:56;;;;;;;33.08;10.13;;;6.70;92.30;;;;;;5104790;28;20020;-56
2023/02/01 09:05:26;;;;;;;52.28;11.05;;;6.70;92.30;;;;;;5105546;28;20028;-56
2023/02/01 09:07:52;;;;;;;41.90;9.85;;;6.70;92.30;;;;;;5106105;28;20024;-56
2023/02/01 09:10:17;;;;;;;45.17;11.65;;;6.70;92.60;;;;;;5106438;28;20028;-56
2023/02/01 09:12:43;;;;;;;48.28;10.55;;;6.70;92.30;;;;;;5104465;28;20087;-56
2023/02/01 09:15:09;;;;;;;66.57;11.20;;;6.80;92.30;;;;;;5106010;28;20024;-56
2023/02/01 09:17:34;;;;;;;43.35;10.23;;;6.80;92.30;;;;;;5087438;28;20028;-56
2023/02/01 09:20:00;;;;;;;51.97;11.15;;;6.80;92.30;;;;;;5104277;28;20034;-56
2023/02/01 09:22:25;;;;;;;50.58;11.50;;;6.80;92.30;;;;;;5104330;28;20081;-56
2023/02/01 09:24:52;;;;;;;44.08;10.77;;;6.80;92.30;;;;;;5105848;28;20028;-57
2023/02/01 09:27:18;;;;;;;42.17;11.27;;;6.80;92.20;;;;;;5104441;28;20088;-56
2023/02/01 09:29:43;;;;;;;50.63;10.55;;;6.80;92.20;;;;;;5104355;28;20093;-56
2023/02/01 09:32:09;;;;;;;45.70;10.27;;;6.80;92.20;;;;;;5104373;28;20127;-56
2023/02/01 09:34:34;;;;;;;45.97;9.75;;;6.80;92.20;;;;;;5104261;28;20334;-56
2023/02/01 09:37:00;;;;;;;43.15;9.00;;;6.90;92.20;;;;;;5104361;28;20104;-56
2023/02/01 09:39:25;;;;;;;30.17;9.55;;;6.90;92.20;;;;;;5104109;28;20080;-56
2023/02/01 09:42:14;;;;;;;27.90;8.25;;;6.90;92.20;;;;;;5105487;28;20034;-56
2023/02/01 09:44:44;;;;;;;39.85;8.63;;;6.90;92.20;;;;;;5104329;28;20047;-56
2023/02/01 09:47:20;;;;;;;47.20;8.93;;;6.90;92.10;;;;;;5104107;28;20080;-56
2023/02/01 09:50:20;;;;;;;24.63;8.23;;;7.00;92.10;;;;;;5104002;28;20032;-56
2023/02/01 09:53:10;;;;;;;36.65;7.13;;;6.90;92.10;;;;;;5089990;28;20036;-56
2023/02/01 09:55:43;;;;;;;41.85;7.90;;;6.90;92.10;;;;;;5105458;28;20036;-56
2023/02/01 09:58:16;;;;;;;22.88;7.63;;;6.90;92.10;;;;;;5103926;28;20464;-56
2023/02/01 10:00:43;;;;;;;23.38;7.93;;;6.90;92.10;;;;;;5087354;28;20172;-56
2023/02/01 10:03:12;;;;;;;91.78;13.60;;;6.90;92.10;;;;;;5103887;28;20099;-56
2023/02/01 10:05:44;;;;;;;44.67;9.57;;;7.00;92.10;;;;;;5103746;28;20062;-56
2023/02/01 10:08:31;;;;;;;41.70;7.93;;;6.90;92.20;;;;;;5105100;28;20117;-56
2023/02/01 10:11:03;;;;;;;48.22;8.88;;;7.00;92.20;;;;;;5105063;28;20040;-56
2023/02/01 10:13:48;;;;;;;37.42;8.13;;;7.00;92.20;;;;;;5103619;28;20032;-56
2023/02/01 10:16:19;;;;;;;37.83;8.60;;;7.00;92.20;;;;;;5103737;28;20506;-56
2023/02/01 10:19:00;;;;;;;35.83;7.80;;;7.10;92.20;;;;;;5103487;28;20051;-56
2023/02/01 10:21:41;;;;;;;58.78;10.18;;;7.10;92.10;;;;;;5103765;28;20088;-56
2023/02/01 10:24:31;;;;;;;49.92;9.02;;;7.10;92.10;;;;;;5103810;28;20035;-56
2023/02/01 10:27:14;;;;;;;43.30;7.70;;;7.10;92.10;;;;;;5104826;28;20054;-56
2023/02/01 10:29:45;;;;;;;232.68;29.65;;;7.20;92.00;;;;;;5103741;28;20123;-56
2023/02/01 10:32:21;;;;;;;163.73;21.00;;;7.10;92.10;;;;;;5103579;28;20058;-56
2023/02/01 10:34:55;;;;;;;69.32;11.23;;;7.20;92.10;;;;;;5104875;28;20028;-56
2023/02/01 10:37:28;;;;;;;70.03;10.23;;;7.20;92.00;;;;;;5103434;28;20456;-56
2023/02/01 10:39:57;;;;;;;58.78;9.30;;;7.30;92.00;;;;;;5103198;28;20028;-56
2023/02/01 10:42:27;;;;;;;51.58;8.85;;;7.30;91.90;;;;;;5103040;28;20081;-56
2023/02/01 10:44:53;;;;;;;32.97;7.03;;;7.30;91.80;;;;;;5103262;28;20445;-56
2023/02/01 10:47:18;;;;;;;52.78;8.80;;;7.30;91.80;;;;;;5104582;28;20506;-56
2023/02/01 10:49:52;;;;;;;40.97;7.82;;;7.40;91.80;;;;;;5104802;28;20044;-56
2023/02/01 10:52:39;;;;;;;71.40;10.10;;;7.40;91.80;;;;;;5102952;28;20040;-56
2023/02/01 10:55:27;;;;;;;48.95;8.07;;;7.40;91.70;;;;;;5089034;28;20095;-56
2023/02/01 10:57:57;;;;;;;48.28;7.50;;;7.40;91.70;;;;;;5108348;28;20036;-56
2023/02/01 11:00:23;;;;;;;77.43;10.20;;;7.50;91.70;;;;;;5107068;28;20036;-56
2023/02/01 11:02:50;;;;;;;65.65;9.02;;;7.50;91.70;;;;;;5106915;28;20069;-56
2023/02/01 11:05:17;;;;;;;51.20;8.70;;;7.50;91.70;;;;;;5090075;28;20039;-56
2023/02/01 11:07:47;;;;;;;50.20;8.38;;;7.50;91.70;;;;;;5106849;28;20031;-56
2023/02/01 11:10:42;;;;;;;43.15;7.75;;;7.50;91.80;;;;;;5106569;28;20464;-56
2023/02/01 11:13:17;;;;;;;126.95;16.17;;;7.60;91.80;;;;;;5094912;28;20516;-56
2023/02/01 11:15:46;;;;;;;71.63;9.63;;;7.60;91.90;;;;;;5106957;28;20032;-56
2023/02/01 11:18:20;;;;;;;53.33;8.00;;;7.60;91.90;;;;;;5106397;28;20032;-56
2023/02/01 11:20:49;;;;;;;42.95;8.05;;;7.60;91.90;;;;;;5106683;28;20055;-56
2023/02/01 11:23:25;;;;;;;62.50;8.20;;;7.60;91.90;;;;;;5106633;28;20028;-56
2023/02/01 11:25:57;;;;;;;45.00;7.45;;;7.60;91.80;;;;;;5106778;28;20069;-56
2023/02/01 11:28:33;;;;;;;43.33;8.27;;;7.70;91.80;;;;;;5106877;28;20035;-56
2023/02/01 11:31:00;;;;;;;116.82;11.05;;;7.70;91.80;;;;;;5089457;28;20043;-56
2023/02/01 11:33:29;;;;;;;67.93;10.48;;;7.70;91.90;;;;;;5106597;28;20387;-56
2023/02/01 11:35:57;;;;;;;75.47;11.45;;;7.70;92.30;;;;;;5106697;28;20036;-56
2023/02/01 11:38:22;;;;;;;57.28;8.50;;;7.70;92.00;;;;;;5106698;28;20024;-56
2023/02/01 11:40:48;;;;;;;93.68;11.35;;;7.80;92.00;;;;;;5106397;28;20028;-56
2023/02/01 11:43:25;;;;;;;57.15;8.88;;;7.80;91.90;;;;;;5106237;28;20190;-56
2023/02/01 11:45:59;;;;;;;56.70;8.05;;;7.80;91.90;;;;;;5106461;28;20028;-56
2023/02/01 11:48:27;;;;;;;47.47;7.80;;;7.80;91.80;;;;;;5106172;28;20097;-56
2023/02/01 11:51:01;;;;;;;58.20;8.70;;;7.80;91.70;;;;;;5104905;28;20067;-56
2023/02/01 11:54:01;;;;;;;42.47;6.80;;;7.80;91.70;;;;;;5106087;28;20071;-56
2023/02/01 11:56:39;;;;;;;40.63;7.00;;;7.80;91.60;;;;;;5106472;28;20051;-56
2023/02/01 11:59:32;;;;;;;40.28;7.60;;;7.80;91.60;;;;;;5104115;28;20035;-55
2023/02/01 12:02:07;;;;;;;45.53;8.27;;;7.80;91.60;;;;;;5105168;28;20132;-56
2023/02/01 12:04:53;;;;;;;61.97;7.60;;;7.80;91.60;;;;;;5105975;28;20028;-55
2023/02/01 12:07:32;;;;;;;35.13;6.97;;;7.80;91.60;;;;;;5106335;28;20020;-56
2023/02/01 12:10:23;;;;;;;49.22;6.50;;;7.80;91.60;;;;;;5105666;28;20036;-56
2023/02/01 12:13:19;;;;;;;57.83;8.65;;;7.80;91.50;;;;;;5105651;28;20092;-56
2023/02/01 12:16:15;;;;;;;35.58;6.28;;;7.80;91.50;;;;;;5106211;28;20080;-56
2023/02/01 12:19:11;;;;;;;61.42;7.88;;;7.90;91.50;;;;;;5102681;28;20055;-56
2023/02/01 12:21:52;;;;;;;43.78;8.00;;;7.80;91.50;;;;;;5102212;28;20180;-56
2023/02/01 12:24:25;;;;;;;53.33;8.38;;;7.90;91.50;;;;;;5101120;28;20028;-56
2023/02/01 12:27:15;;;;;;;42.30;7.20;;;7.90;91.60;;;;;;5096906;28;20076;-56
2023/02/01 12:30:01;;;;;;;50.78;7.93;;;7.90;91.60;;;;;;5104841;28;20028;-56
2023/02/01 12:32:42;;;;;;;51.60;7.32;;;7.90;91.50;;;;;;5099135;28;20051;-56
2023/02/01 12:35:13;;;;;;;60.83;9.13;;;7.90;91.50;;;;;;5103452;28;20493;-56
2023/02/01 12:37:54;;;;;;;54.22;9.07;;;7.90;91.50;;;;;;5105232;28;20032;-56
2023/02/01 12:40:25;;;;;;;98.30;10.15;;;7.90;91.90;;;;;;5105039;28;20032;-56
2023/02/01 12:42:59;;;;;;;61.15;9.85;;;8.00;91.70;;;;;;5099963;28;20054;-56
2023/02/01 12:45:40;;;;;;;57.22;8.80;;;8.00;91.80;;;;;;5094944;28;20020;-56
2023/02/01 12:48:22;;;;;;;75.15;8.70;;;8.10;91.70;;;;;;5098464;28;20036;-56
2023/02/01 12:50:56;;;;;;;46.20;7.38;;;8.10;91.60;;;;;;5083544;28;20024;-55
2023/02/01 12:53:25;;;;;;;66.28;8.60;;;8.10;91.60;;;;;;5104853;28;20101;-56
2023/02/01 12:55:53;;;;;;;72.03;8.60;;;8.10;91.60;;;;;;5104882;28;20032;-56
2023/02/01 12:58:32;;;;;;;76.75;9.52;;;8.10;91.50;;;;;;5105076;28;20036;-56
2023/02/01 13:01:34;;;;;;;65.55;9.50;;;8.10;91.70;;;;;;5104658;28;20531;-56
2023/02/01 13:04:38;;;;;;;134.30;12.88;;;8.20;91.50;;;;;;5021180;28;20892;-56
2023/02/01 13:07:25;;;;;;;92.55;10.98;;;8.20;91.60;;;;;;5021623;28;20038;-56
2023/02/01 13:10:14;;;;;;;244.25;22.77;;;8.30;91.40;;;;;;5090694;28;20048;-56
2023/02/01 13:12:53;;;;;;;126.68;13.30;;;8.30;91.50;;;;;;5088473;28;20146;-56
2023/02/01 13:15:31;;;;;;;93.75;12.40;;;8.30;91.30;;;;;;5101195;28;20020;-56
2023/02/01 13:17:59;;;;;;;83.05;10.90;;;8.40;91.00;;;;;;5068589;28;20066;-57
2023/02/01 13:20:36;;;;;;;141.40;13.38;;;8.30;90.90;;;;;;5083601;28;20032;-56
2023/02/01 13:23:23;;;;;;;77.70;10.98;;;8.30;90.90;;;;;;5097444;28;20059;-56